Time;durP1;ratioP1;P1;durP2;ratioP2;P2;SDS_P1;SDS_P2;PMS_P1;PMS_P2;Temp;Humidity;BMP_temperature;BMP_pressure;BME280_temperature;BME280_humidity;BME280_pressure;Samples;Min_cycle;Max_cycle;Signal;HPM_P1;HPM_P2
2022/10/01 00:01:16;;;;;;;12.85;6.93;;;;;;;17.65;67.39;99423.16;4498051;31;33226;-64
2022/10/01 00:03:44;;;;;;;10.38;7.35;;;;;;;17.66;67.30;99457.34;4495697;31;33728;-64
2022/10/01 00:06:19;;;;;;;8.30;5.45;;;;;;;17.26;68.99;99549.22;4489359;31;33491;-64
2022/10/01 00:08:47;;;;;;;;;;;;;;;16.46;72.47;99536.72;4492686;31;34673;-63
2022/10/01 00:11:22;;;;;;;7.57;5.37;;;;;;;16.19;73.65;99451.28;4497795;31;33675;-63
2022/10/01 00:13:50;;;;;;;6.93;4.23;;;;;;;16.58;72.04;99413.03;4498829;31;33989;-64
2022/10/01 00:16:23;;;;;;;4.65;3.08;;;;;;;16.51;72.58;99412.84;4500236;31;35215;-64
2022/10/01 00:18:54;;;;;;;7.57;6.12;;;;;;;16.77;71.62;99423.63;4488265;31;33947;-63
2022/10/01 00:21:24;;;;;;;7.45;5.53;;;;;;;16.66;72.29;99434.72;4497825;31;33129;-63
2022/10/01 00:23:57;;;;;;;6.50;4.37;;;;;;;17.04;70.83;99435.22;4500053;31;36138;-64
2022/10/01 00:26:27;;;;;;;8.27;5.82;;;;;;;17.17;70.27;99442.88;4499691;31;34232;-64
2022/10/01 00:28:57;;;;;;;7.07;4.93;;;;;;;16.88;71.58;99440.56;4494009;31;33872;-63
2022/10/01 00:31:25;;;;;;;6.50;4.80;;;;;;;17.36;69.66;99434.47;4489959;31;34530;-64
2022/10/01 00:33:53;;;;;;;9.32;5.95;;;;;;;17.65;68.54;99443.97;4494034;31;33438;-63
2022/10/01 00:36:21;;;;;;;9.52;6.32;;;;;;;17.73;68.21;99444.00;4498377;31;33959;-64
2022/10/01 00:38:49;;;;;;;12.55;7.95;;;;;;;17.84;67.62;99429.31;4498012;31;35206;-64
2022/10/01 00:41:17;;;;;;;8.50;5.53;;;;;;;17.89;67.37;99422.37;4496255;31;33540;-64
2022/10/01 00:43:49;;;;;;;11.57;8.73;;;;;;;18.00;67.15;99431.16;4497645;31;33927;-64
2022/10/01 00:46:30;;;;;;;10.02;7.50;;;;;;;18.04;67.02;99430.69;4495929;31;35145;-64
2022/10/01 00:49:08;;;;;;;8.48;6.30;;;;;;;18.08;66.79;99433.88;4484056;31;34030;-64
2022/10/01 00:51:41;;;;;;;8.23;6.12;;;;;;;18.19;66.37;99429.97;4485218;31;34376;-64
2022/10/01 00:54:13;;;;;;;8.35;5.47;;;;;;;18.23;66.04;99429.44;4484012;32;33739;-64
2022/10/01 00:56:42;;;;;;;8.65;4.30;;;;;;;18.27;65.87;99419.13;4483197;31;35127;-64
2022/10/01 00:59:10;;;;;;;10.18;5.43;;;;;;;18.33;65.63;99419.28;4497285;31;33614;-64
2022/10/01 01:01:38;;;;;;;9.30;5.68;;;;;;;18.38;65.51;99416.06;4499732;31;33139;-64
2022/10/01 01:04:15;;;;;;;8.68;4.85;;;;;;;18.38;65.46;99416.91;4496984;31;33559;-64
2022/10/01 01:06:56;;;;;;;8.90;5.80;;;;;;;18.43;65.17;99419.09;4495913;31;33881;-64
2022/10/01 01:09:30;;;;;;;10.40;7.75;;;;;;;18.45;65.10;99416.19;4498553;31;33596;-64
2022/10/01 01:12:01;;;;;;;6.82;5.12;;;;;;;18.43;64.95;99424.53;4499306;31;33660;-64
2022/10/01 01:14:43;;;;;;;9.85;5.62;;;;;;;18.42;64.84;99425.53;4499933;31;33915;-64
2022/10/01 01:17:14;;;;;;;10.80;7.05;;;;;;;18.40;64.85;99430.28;4497441;31;35036;-65
2022/10/01 01:20:03;;;;;;;8.63;6.35;;;;;;;18.30;65.08;99426.94;4487658;31;34049;-64
2022/10/01 01:22:33;;;;;;;7.55;5.10;;;;;;;18.30;65.16;99429.63;4497524;31;34347;-64
2022/10/01 01:25:13;;;;;;;10.05;5.90;;;;;;;18.37;65.10;99423.34;4493488;31;34755;-64
2022/10/01 01:27:47;;;;;;;7.72;5.87;;;;;;;18.42;64.99;99430.09;4494390;31;35032;-64
2022/10/01 01:30:15;;;;;;;5.90;4.18;;;;;;;18.42;64.99;99428.22;4496963;31;33777;-63
2022/10/01 01:32:45;;;;;;;8.18;5.28;;;;;;;18.48;64.79;99426.69;4492163;31;33578;-64
2022/10/01 01:35:20;;;;;;;7.75;5.12;;;;;;;18.51;64.74;99427.19;4485501;31;34707;-63
2022/10/01 01:37:56;;;;;;;8.55;5.57;;;;;;;18.52;64.73;99422.63;4488288;31;35259;-63
2022/10/01 01:40:24;;;;;;;6.65;4.65;;;;;;;18.57;64.49;99426.50;4499252;31;34912;-64
2022/10/01 01:42:53;;;;;;;9.32;5.93;;;;;;;18.57;64.42;99428.38;4488283;31;34230;-64
2022/10/01 01:45:25;;;;;;;9.40;6.60;;;;;;;18.55;64.39;99427.69;4498872;31;33986;-64
2022/10/01 01:47:54;;;;;;;11.38;7.93;;;;;;;18.60;64.30;99425.31;4487386;31;33972;-64
2022/10/01 01:50:24;;;;;;;10.38;6.22;;;;;;;18.58;64.35;99416.50;4492035;31;33651;-65
2022/10/01 01:52:55;;;;;;;9.82;7.75;;;;;;;18.60;64.30;99411.75;4488443;31;33206;-65
2022/10/01 01:55:23;;;;;;;9.32;7.22;;;;;;;18.56;64.29;99405.84;4493501;31;33930;-64
2022/10/01 01:57:52;;;;;;;11.82;8.25;;;;;;;18.51;64.43;99402.81;4487180;31;35341;-64
2022/10/01 02:00:21;;;;;;;8.18;4.53;;;;;;;18.51;64.47;99399.25;4485626;31;34017;-64
2022/10/01 02:02:51;;;;;;;6.62;4.62;;;;;;;18.49;64.44;99404.00;4494493;31;33243;-64
2022/10/01 02:05:25;;;;;;;11.77;7.50;;;;;;;18.49;64.41;99393.16;4497056;31;33114;-64
2022/10/01 02:08:23;;;;;;;11.82;7.85;;;;;;;18.40;64.64;99384.22;4494158;31;32736;-64
2022/10/01 02:11:17;;;;;;;8.20;5.90;;;;;;;18.46;64.58;99386.25;4488504;31;36993;-64
2022/10/01 02:14:02;;;;;;;7.77;5.43;;;;;;;18.31;65.07;99377.13;4481404;31;32430;-65
2022/10/01 02:16:34;;;;;;;7.47;5.80;;;;;;;18.30;65.02;99383.56;4489782;31;34157;-64
2022/10/01 02:19:32;;;;;;;13.00;5.53;;;;;;;18.38;64.82;99391.66;4492824;31;35054;-64
2022/10/01 02:22:06;;;;;;;7.95;5.43;;;;;;;18.43;64.60;99408.25;4482708;31;33708;-65
2022/10/01 02:24:56;;;;;;;16.55;6.15;;;;;;;18.31;64.85;99412.34;4496961;31;33508;-64
2022/10/01 02:27:45;;;;;;;9.27;5.35;;;;;;;18.47;64.34;99423.16;4487896;31;33989;-64
2022/10/01 02:30:14;;;;;;;7.75;6.20;;;;;;;18.39;64.45;99415.91;4488826;31;32729;-64
2022/10/01 02:32:43;;;;;;;11.12;9.13;;;;;;;18.21;65.09;99398.16;4498071;31;33498;-64
2022/10/01 02:35:14;;;;;;;13.23;8.57;;;;;;;18.42;64.49;99405.72;4489133;31;33209;-64
2022/10/01 02:37:43;;;;;;;10.23;5.97;;;;;;;18.35;64.69;99413.69;4485180;31;32288;-64
2022/10/01 02:40:14;;;;;;;9.82;6.18;;;;;;;18.49;64.18;99420.25;4493803;31;34136;-64
2022/10/01 02:42:49;;;;;;;7.95;5.80;;;;;;;18.54;63.84;99410.59;4496670;31;33697;-64
2022/10/01 02:45:21;;;;;;;9.60;7.45;;;;;;;18.55;63.85;99419.56;4486000;31;34409;-64
2022/10/01 02:47:53;;;;;;;10.60;8.43;;;;;;;18.52;63.96;99409.06;4492173;31;33932;-64
2022/10/01 02:50:23;;;;;;;10.10;7.00;;;;;;;18.55;63.77;99414.97;4485029;31;35330;-65
2022/10/01 02:53:41;;;;;;;9.82;6.05;;;;;;;18.49;64.01;99421.13;4493606;31;35108;-64
2022/10/01 02:56:09;;;;;;;9.85;8.02;;;;;;;18.53;63.89;99421.63;4480542;31;34704;-65
2022/10/01 02:58:36;;;;;;;6.43;4.30;;;;;;;18.49;63.95;99423.84;4498146;31;33535;-65
2022/10/01 03:01:05;;;;;;;9.02;6.62;;;;;;;18.52;63.81;99420.78;4496934;31;33878;-65
2022/10/01 03:03:32;;;;;;;8.20;6.22;;;;;;;18.53;64.06;99424.31;4498858;31;33908;-66
2022/10/01 03:06:00;;;;;;;8.95;5.65;;;;;;;18.52;64.12;99426.19;4496185;31;32030;-65
2022/10/01 03:08:28;;;;;;;10.85;8.10;;;;;;;18.53;64.13;99410.78;4499844;31;34609;-65
2022/10/01 03:10:55;;;;;;;8.60;6.35;;;;;;;18.52;64.28;99399.09;4492259;31;32257;-65
2022/10/01 03:13:24;;;;;;;13.43;7.53;;;;;;;18.54;64.14;99401.63;4499086;31;32923;-66
2022/10/01 03:15:51;;;;;;;10.18;7.70;;;;;;;18.50;64.40;99401.13;4497858;31;33854;-66
2022/10/01 03:18:19;;;;;;;12.68;10.98;;;;;;;18.51;64.29;99402.81;4500664;31;34752;-66
2022/10/01 03:20:47;;;;;;;11.10;8.75;;;;;;;18.48;64.63;99400.44;4497930;31;32882;-65
2022/10/01 03:23:14;;;;;;;11.75;9.77;;;;;;;18.51;64.66;99410.09;4499516;31;33434;-65
2022/10/01 03:25:42;;;;;;;11.45;8.75;;;;;;;18.38;65.11;99422.31;4496669;31;33187;-66
2022/10/01 03:28:09;;;;;;;11.82;7.95;;;;;;;18.50;64.88;99432.81;4489867;31;33779;-66
2022/10/01 03:30:37;;;;;;;15.10;9.20;;;;;;;18.23;65.75;99453.81;4497284;31;34894;-66
2022/10/01 03:33:05;;;;;;;12.20;8.13;;;;;;;18.29;65.75;99471.25;4499087;31;34978;-65
2022/10/01 03:35:32;;;;;;;7.60;5.12;;;;;;;18.36;65.61;99451.47;4492212;31;33262;-66
2022/10/01 03:38:01;;;;;;;10.10;6.15;;;;;;;18.33;65.89;99459.06;4491097;31;34360;-65
2022/10/01 03:40:32;;;;;;;17.60;10.88;;;;;;;18.38;65.84;99460.25;4493233;31;34185;-66
2022/10/01 03:42:59;;;;;;;17.15;10.75;;;;;;;18.14;66.81;99461.13;4497393;31;34872;-66
2022/10/01 03:45:27;;;;;;;10.35;6.68;;;;;;;18.39;65.79;99444.81;4489979;31;34944;-66
2022/10/01 03:47:54;;;;;;;11.68;7.85;;;;;;;18.50;65.51;99438.22;4497936;31;34578;-66
2022/10/01 03:50:22;;;;;;;11.90;8.10;;;;;;;18.41;65.74;99437.37;4489023;31;33994;-66
2022/10/01 03:52:50;;;;;;;7.40;5.47;;;;;;;18.27;66.12;99438.94;4486576;31;33565;-66
2022/10/01 03:55:18;;;;;;;8.05;5.35;;;;;;;18.44;65.75;99442.47;4486378;31;34818;-66
2022/10/01 03:57:46;;;;;;;10.18;6.93;;;;;;;18.22;66.26;99424.22;4497389;31;33852;-65
2022/10/01 04:00:13;;;;;;;7.97;6.05;;;;;;;18.03;66.96;99425.41;4498359;31;35360;-66
2022/10/01 04:02:40;;;;;;;11.02;8.48;;;;;;;17.75;67.85;99414.87;4488800;31;33853;-66
2022/10/01 04:05:08;;;;;;;9.13;6.15;;;;;;;17.97;67.33;99409.84;4496894;31;34318;-66
2022/10/01 04:07:36;;;;;;;8.93;6.90;;;;;;;18.07;66.90;99405.09;4499560;31;33875;-66
2022/10/01 04:10:03;;;;;;;6.95;5.65;;;;;;;18.11;66.87;99407.31;4500492;31;35206;-66
2022/10/01 04:12:31;;;;;;;8.90;6.95;;;;;;;18.24;66.40;99406.78;4495670;31;34735;-65
2022/10/01 04:14:59;;;;;;;10.95;7.05;;;;;;;18.24;66.36;99405.94;4493097;31;33423;-66
2022/10/01 04:17:26;;;;;;;9.73;6.87;;;;;;;18.21;66.36;99404.41;4496829;31;33740;-65
2022/10/01 04:19:56;;;;;;;7.37;5.75;;;;;;;18.28;66.14;99410.81;4499590;31;32993;-65
2022/10/01 04:22:24;;;;;;;9.10;5.75;;;;;;;18.27;66.19;99411.84;4493454;31;35125;-65
2022/10/01 04:24:52;;;;;;;8.07;6.40;;;;;;;18.33;66.08;99407.59;4495664;31;33222;-65
2022/10/01 04:27:20;;;;;;;6.55;4.95;;;;;;;18.27;66.19;99409.16;4494985;31;34870;-65
2022/10/01 04:29:47;;;;;;;9.48;5.30;;;;;;;18.01;67.05;99401.22;4499748;31;32899;-65
2022/10/01 04:32:20;;;;;;;6.12;4.00;;;;;;;18.07;66.87;99405.97;4495853;31;33938;-66
2022/10/01 04:34:51;;;;;;;9.35;7.18;;;;;;;18.11;66.83;99411.88;4494189;31;33189;-66
2022/10/01 04:37:20;;;;;;;10.98;7.35;;;;;;;18.22;66.54;99411.50;4499252;31;32275;-66
2022/10/01 04:39:48;;;;;;;7.15;5.05;;;;;;;18.21;66.51;99407.13;4498755;31;33981;-66
2022/10/01 04:42:15;;;;;;;15.95;4.75;;;;;;;18.31;66.10;99405.06;4494833;31;34982;-67
2022/10/01 04:44:43;;;;;;;6.60;4.60;;;;;;;18.21;66.54;99409.84;4498645;31;34252;-66
2022/10/01 04:47:11;;;;;;;7.40;5.40;;;;;;;18.35;65.98;99409.09;4496712;31;32453;-66
2022/10/01 04:49:38;;;;;;;7.60;5.22;;;;;;;18.36;66.06;99412.66;4498067;31;34295;-66
2022/10/01 04:52:05;;;;;;;6.45;5.30;;;;;;;18.44;65.71;99412.66;4496605;31;34846;-65
2022/10/01 04:54:33;;;;;;;6.50;3.95;;;;;;;18.35;66.01;99416.41;4495681;31;33735;-67
2022/10/01 04:57:00;;;;;;;8.82;6.53;;;;;;;18.25;66.24;99415.75;4494625;31;35006;-66
2022/10/01 04:59:28;;;;;;;7.70;5.93;;;;;;;18.33;66.14;99416.59;4500460;31;32921;-65
2022/10/01 05:01:56;;;;;;;7.62;5.45;;;;;;;18.39;66.00;99420.44;4495434;31;33783;-67
2022/10/01 05:04:23;;;;;;;11.32;6.90;;;;;;;18.45;65.65;99430.59;4499567;31;32049;-65
2022/10/01 05:06:51;;;;;;;11.75;7.72;;;;;;;18.47;65.68;99430.44;4496957;31;34837;-64
2022/10/01 05:09:19;;;;;;;8.95;6.03;;;;;;;18.45;65.63;99440.59;4498582;31;32704;-65
2022/10/01 05:11:50;;;;;;;13.57;4.78;;;;;;;18.45;65.63;99457.69;4492284;31;35448;-65
2022/10/01 05:14:20;;;;;;;8.25;5.68;;;;;;;18.11;66.91;99468.75;4488912;31;32656;-64
2022/10/01 05:16:47;;;;;;;7.32;5.03;;;;;;;18.38;66.08;99462.97;4494511;31;33548;-68
2022/10/01 05:19:15;;;;;;;12.77;7.70;;;;;;;18.46;65.83;99462.13;4498596;31;35201;-65
2022/10/01 05:21:42;;;;;;;8.55;6.25;;;;;;;18.39;66.17;99463.78;4497788;31;34282;-65
2022/10/01 05:24:10;;;;;;;7.47;4.43;;;;;;;18.48;65.93;99472.78;4488851;31;32184;-66
2022/10/01 05:26:37;;;;;;;12.52;8.65;;;;;;;18.49;65.67;99450.94;4492633;31;34879;-66
2022/10/01 05:29:05;;;;;;;24.02;13.02;;;;;;;18.11;67.03;99453.34;4493935;31;33840;-65
2022/10/01 05:31:33;;;;;;;8.52;6.43;;;;;;;17.63;68.86;99446.88;4495422;31;34054;-65
2022/10/01 05:34:01;;;;;;;8.68;4.72;;;;;;;17.36;70.09;99439.03;4489627;31;32060;-65
2022/10/01 05:36:29;;;;;;;8.70;4.03;;;;;;;17.34;70.50;99430.25;4493112;31;33947;-64
2022/10/01 05:38:56;;;;;;;8.30;5.53;;;;;;;17.04;72.01;99434.38;4497325;31;33980;-64
2022/10/01 05:41:24;;;;;;;12.70;7.82;;;;;;;17.31;71.02;99450.34;4489741;31;35121;-64
2022/10/01 05:43:51;;;;;;;12.43;8.85;;;;;;;17.55;70.24;99448.72;4495106;31;32449;-63
2022/10/01 05:46:19;;;;;;;8.55;5.82;;;;;;;17.65;69.96;99460.22;4495494;31;33878;-63
2022/10/01 05:48:50;;;;;;;11.98;5.70;;;;;;;17.74;69.68;99459.22;4499618;31;34201;-63
2022/10/01 05:51:18;;;;;;;6.97;4.43;;;;;;;17.87;69.25;99458.75;4500037;31;34943;-64
2022/10/01 05:53:48;;;;;;;9.93;8.00;;;;;;;17.90;69.24;99453.00;4491622;31;33592;-63
2022/10/01 05:56:16;;;;;;;10.73;6.85;;;;;;;18.08;68.56;99453.69;4498241;31;34923;-65
2022/10/01 05:58:45;;;;;;;9.88;6.82;;;;;;;18.16;68.24;99437.41;4486657;31;33110;-64
2022/10/01 06:01:13;;;;;;;11.55;9.25;;;;;;;18.02;68.47;99424.56;4485624;31;34437;-63
2022/10/01 06:03:41;;;;;;;18.73;9.68;;;;;;;17.45;70.33;99416.41;4491521;31;34010;-63
2022/10/01 06:06:09;;;;;;;15.77;9.90;;;;;;;17.59;69.94;99417.59;4487510;31;33667;-64
2022/10/01 06:08:37;;;;;;;7.75;5.57;;;;;;;17.86;69.12;99414.59;4496986;31;33796;-64
2022/10/01 06:11:04;;;;;;;10.15;4.62;;;;;;;17.82;69.30;99404.28;4496387;31;33907;-64
2022/10/01 06:13:34;;;;;;;8.30;5.47;;;;;;;17.46;70.85;99399.13;4491331;31;33439;-64
2022/10/01 06:16:01;;;;;;;8.73;5.03;;;;;;;17.56;70.76;99396.28;4493914;31;34999;-64
2022/10/01 06:18:29;;;;;;;11.05;7.45;;;;;;;17.59;70.75;99396.81;4489900;31;33374;-63
2022/10/01 06:20:58;;;;;;;10.52;7.00;;;;;;;17.90;69.63;99390.72;4492794;31;35406;-64
2022/10/01 06:23:26;;;;;;;9.57;5.57;;;;;;;17.51;70.93;99377.00;4491833;31;33718;-63
2022/10/01 06:25:54;;;;;;;6.70;4.47;;;;;;;17.76;70.45;99392.25;4483918;31;33679;-65
2022/10/01 06:28:21;;;;;;;6.90;4.35;;;;;;;17.86;70.11;99408.34;4491050;31;35243;-63
2022/10/01 06:30:49;;;;;;;8.30;5.35;;;;;;;17.77;70.49;99426.44;4492473;31;33865;-64
2022/10/01 06:33:17;;;;;;;9.63;6.32;;;;;;;18.14;69.30;99433.22;4494083;31;34350;-64
2022/10/01 06:35:47;;;;;;;12.88;10.10;;;;;;;18.29;68.63;99436.03;4498351;31;32396;-65
2022/10/01 06:38:16;;;;;;;13.25;9.90;;;;;;;18.32;68.58;99431.13;4495006;31;33916;-64
2022/10/01 06:40:53;;;;;;;11.50;6.97;;;;;;;18.24;68.99;99424.91;4484207;31;32357;-64
2022/10/01 06:43:21;;;;;;;11.85;7.15;;;;;;;18.20;69.00;99427.06;4496085;31;32129;-64
2022/10/01 06:45:49;;;;;;;13.45;8.07;;;;;;;18.29;68.79;99425.22;4499061;31;32583;-64
2022/10/01 06:48:18;;;;;;;8.85;6.50;;;;;;;18.29;68.73;99430.63;4493305;31;33996;-63
2022/10/01 06:50:48;;;;;;;8.77;4.90;;;;;;;18.42;68.27;99424.69;4498629;31;34278;-64
2022/10/01 06:53:17;;;;;;;10.68;7.32;;;;;;;18.13;69.26;99443.16;4496582;31;33194;-63
2022/10/01 06:55:45;;;;;;;8.75;7.00;;;;;;;18.24;68.98;99443.88;4500375;31;33954;-63
2022/10/01 06:58:15;;;;;;;9.45;5.40;;;;;;;18.26;68.90;99434.53;4493714;31;33033;-63
2022/10/01 07:00:43;;;;;;;12.50;8.90;;;;;;;18.25;69.05;99432.00;4487423;31;33185;-63
2022/10/01 07:03:13;;;;;;;10.93;7.70;;;;;;;18.36;68.75;99435.22;4492530;31;32314;-63
2022/10/01 07:05:41;;;;;;;14.45;10.30;;;;;;;18.33;68.84;99431.97;4496315;31;33395;-63
2022/10/01 07:08:09;;;;;;;13.23;6.87;;;;;;;18.33;68.76;99422.00;4498815;31;34734;-63
2022/10/01 07:10:36;;;;;;;10.10;7.22;;;;;;;18.18;69.39;99422.88;4491161;31;33529;-62
2022/10/01 07:13:09;;;;;;;12.57;9.85;;;;;;;18.08;69.71;99414.94;4492437;31;32033;-63
2022/10/01 07:15:37;;;;;;;12.13;9.13;;;;;;;17.86;70.95;99403.78;4495186;31;33925;-63
2022/10/01 07:18:07;;;;;;;16.40;10.40;;;;;;;17.92;70.73;99403.09;4495839;31;34003;-62
2022/10/01 07:20:38;;;;;;;11.02;6.05;;;;;;;17.81;71.17;99406.13;4496918;31;32490;-63
2022/10/01 07:23:11;;;;;;;12.75;8.48;;;;;;;17.63;72.25;99408.13;4498084;31;33637;-63
2022/10/01 07:25:40;;;;;;;12.20;8.43;;;;;;;17.76;71.81;99413.06;4488347;31;34993;-63
2022/10/01 07:28:15;;;;;;;10.32;8.02;;;;;;;17.89;71.20;99416.97;4493606;31;34778;-63
2022/10/01 07:30:56;;;;;;;9.05;6.53;;;;;;;18.04;70.77;99409.00;4491683;31;33940;-63
2022/10/01 07:33:24;;;;;;;9.77;7.15;;;;;;;18.07;70.88;99402.38;4492211;31;32021;-63
2022/10/01 07:35:51;;;;;;;7.78;5.95;;;;;;;18.15;70.66;99392.41;4498960;31;32733;-63
2022/10/01 07:38:19;;;;;;;13.60;9.68;;;;;;;17.83;72.01;99385.16;4497594;31;34172;-63
2022/10/01 07:40:51;;;;;;;13.20;7.57;;;;;;;17.82;72.47;99382.63;4490053;31;33869;-64
2022/10/01 07:43:19;;;;;;;7.95;5.93;;;;;;;18.15;71.40;99383.44;4496839;31;32933;-62
2022/10/01 07:45:48;;;;;;;8.65;6.87;;;;;;;18.30;70.79;99395.25;4496643;31;34937;-63
2022/10/01 07:48:16;;;;;;;10.15;7.03;;;;;;;18.16;71.29;99399.50;4493856;31;35026;-63
2022/10/01 07:50:44;;;;;;;13.02;9.07;;;;;;;18.21;71.28;99396.28;4499049;31;34918;-63
2022/10/01 07:53:12;;;;;;;9.52;6.55;;;;;;;18.28;70.82;99408.13;4496468;31;33163;-63
2022/10/01 07:55:40;;;;;;;11.07;8.45;;;;;;;18.31;70.79;99399.66;4495866;31;33866;-63
2022/10/01 07:58:08;;;;;;;16.12;11.50;;;;;;;18.24;71.14;99393.22;4489304;31;33977;-63
2022/10/01 08:00:37;;;;;;;14.38;8.15;;;;;;;18.38;70.56;99407.94;4499597;31;33839;-64
2022/10/01 08:03:04;;;;;;;14.90;11.15;;;;;;;18.62;69.90;99404.31;4496147;31;31864;-63
2022/10/01 08:05:34;;;;;;;11.30;7.78;;;;;;;18.46;70.36;99405.22;4498543;31;33857;-63
2022/10/01 08:08:06;;;;;;;10.02;6.87;;;;;;;18.67;69.85;99398.34;4497739;31;34068;-63
2022/10/01 08:10:35;;;;;;;10.23;7.78;;;;;;;18.61;70.14;99400.72;4496267;31;33856;-63
2022/10/01 08:13:07;;;;;;;12.63;7.70;;;;;;;18.41;70.90;99395.91;4496912;31;34815;-63
2022/10/01 08:15:35;;;;;;;13.88;9.48;;;;;;;18.63;70.20;99398.69;4495972;31;34804;-63
2022/10/01 08:18:03;;;;;;;14.48;9.50;;;;;;;18.60;70.24;99390.09;4494551;31;35206;-63
2022/10/01 08:20:31;;;;;;;10.35;7.90;;;;;;;18.58;70.17;99392.09;4499425;31;32559;-63
2022/10/01 08:23:03;;;;;;;11.50;8.32;;;;;;;18.71;70.08;99399.69;4498021;31;32930;-63
2022/10/01 08:25:31;;;;;;;11.98;7.82;;;;;;;18.24;71.84;99400.53;4497540;31;34949;-63
2022/10/01 08:27:59;;;;;;;11.70;9.07;;;;;;;18.76;70.17;99395.47;4499479;31;34902;-63
2022/10/01 08:30:27;;;;;;;14.73;11.15;;;;;;;18.84;69.72;99381.88;4498147;31;32583;-64
2022/10/01 08:32:56;;;;;;;19.30;14.90;;;;;;;18.56;70.69;99370.63;4488343;31;33543;-63
2022/10/01 08:35:24;;;;;;;22.13;18.30;;;;;;;18.58;70.68;99373.97;4491085;31;33698;-64
2022/10/01 08:37:54;;;;;;;15.52;12.02;;;;;;;18.78;70.04;99369.03;4497755;31;33274;-62
2022/10/01 08:40:22;;;;;;;14.02;9.05;;;;;;;18.83;69.87;99366.63;4497490;31;33643;-63
2022/10/01 08:42:58;;;;;;;15.95;10.43;;;;;;;18.68;70.59;99360.22;4491436;31;32835;-63
2022/10/01 08:45:33;;;;;;;15.05;10.35;;;;;;;18.51;71.12;99359.44;4497854;31;34721;-63
2022/10/01 08:48:08;;;;;;;13.98;9.50;;;;;;;18.64;70.80;99361.59;4496659;31;33743;-64
2022/10/01 08:50:43;;;;;;;15.77;12.45;;;;;;;18.73;70.60;99354.31;4488754;31;32730;-63
2022/10/01 08:53:15;;;;;;;21.33;16.73;;;;;;;18.77;70.52;99359.19;4488502;31;33528;-63
2022/10/01 08:55:53;;;;;;;19.58;12.93;;;;;;;18.95;70.18;99361.66;4491529;31;33701;-63
2022/10/01 08:58:28;;;;;;;22.40;13.40;;;;;;;18.84;70.82;99362.03;4498376;31;33888;-62
2022/10/01 09:00:55;;;;;;;21.27;14.18;;;;;;;18.62;71.66;99363.66;4497076;31;34838;-65
2022/10/01 09:03:25;;;;;;;30.55;20.20;;;;;;;18.50;71.77;99363.19;4492703;31;34516;-63
2022/10/01 09:05:58;;;;;;;19.73;14.27;;;;;;;18.71;71.21;99364.44;4494538;31;33536;-63
2022/10/01 09:08:43;;;;;;;18.40;12.75;;;;;;;18.91;70.66;99370.31;4493740;31;33861;-63
2022/10/01 09:11:13;;;;;;;16.62;10.20;;;;;;;19.08;70.11;99359.19;4499157;31;33764;-63
2022/10/01 09:14:06;;;;;;;18.75;13.00;;;;;;;19.23;69.85;99356.56;4482423;31;31866;-63
2022/10/01 09:16:37;;;;;;;16.33;10.98;;;;;;;19.24;70.18;99360.13;4497702;31;33853;-64
2022/10/01 09:19:24;;;;;;;19.45;14.50;;;;;;;19.24;70.49;99360.97;4499083;31;34047;-64
2022/10/01 09:22:05;;;;;;;28.17;15.70;;;;;;;19.31;70.65;99359.22;4487471;31;33458;-64
2022/10/01 09:24:41;;;;;;;26.37;18.62;;;;;;;18.89;71.65;99356.09;4480837;31;34468;-64
2022/10/01 09:27:13;;;;;;;26.80;19.42;;;;;;;18.89;72.03;99356.09;4493458;31;33999;-63
2022/10/01 09:29:51;;;;;;;25.33;16.98;;;;;;;19.26;71.82;99349.91;4498370;31;32633;-63
2022/10/01 09:32:22;;;;;;;20.62;14.52;;;;;;;19.51;71.38;99347.88;4494041;31;34832;-64
2022/10/01 09:34:50;;;;;;;20.65;15.13;;;;;;;19.48;71.59;99335.50;4487775;31;33451;-63
2022/10/01 09:37:22;;;;;;;19.00;14.60;;;;;;;19.13;72.83;99342.38;4498313;31;34161;-63
2022/10/01 09:39:59;;;;;;;15.93;10.15;;;;;;;19.57;71.47;99339.00;4497770;31;35683;-64
2022/10/01 09:42:28;;;;;;;20.42;15.07;;;;;;;19.57;72.23;99340.88;4494709;31;33809;-62
2022/10/01 09:44:56;;;;;;;26.48;20.58;;;;;;;19.51;72.54;99332.44;4496361;31;33387;-64
2022/10/01 09:47:27;;;;;;;21.30;15.80;;;;;;;19.52;72.60;99341.44;4485492;31;34685;-65
2022/10/01 09:49:57;;;;;;;20.95;14.40;;;;;;;19.71;71.00;99346.41;4496742;31;33171;-63
2022/10/01 09:52:36;;;;;;;15.90;12.45;;;;;;;19.95;70.21;99333.62;4482337;31;34163;-64
2022/10/01 09:55:14;;;;;;;20.42;13.52;;;;;;;19.91;70.33;99341.28;4490629;31;33628;-64
2022/10/01 09:57:50;;;;;;;25.17;20.55;;;;;;;20.17;69.10;99326.44;4497173;31;33395;-63
2022/10/01 10:00:23;;;;;;;18.33;14.25;;;;;;;20.13;69.13;99320.53;4496704;31;34068;-63
2022/10/01 10:02:53;;;;;;;25.92;21.45;;;;;;;20.22;68.63;99324.84;4489342;31;33663;-64
2022/10/01 10:05:28;;;;;;;24.73;20.85;;;;;;;20.17;68.36;99315.56;4496541;31;31951;-63
2022/10/01 10:08:09;;;;;;;16.52;12.10;;;;;;;20.28;68.11;99319.66;4498142;31;33934;-63
2022/10/01 10:10:38;;;;;;;21.62;17.42;;;;;;;20.34;67.81;99317.03;4494378;31;34997;-64
2022/10/01 10:13:13;;;;;;;19.83;16.67;;;;;;;20.22;68.01;99313.97;4495166;31;35005;-64
2022/10/01 10:15:52;;;;;;;16.73;13.63;;;;;;;20.33;68.07;99306.38;4496055;31;34497;-64
2022/10/01 10:18:29;;;;;;;20.83;16.83;;;;;;;20.29;68.36;99305.91;4488732;31;34292;-63
2022/10/01 10:20:58;;;;;;;19.33;16.02;;;;;;;20.21;69.37;99308.72;4496966;31;33799;-64
2022/10/01 10:23:27;;;;;;;11.48;9.82;;;;;;;20.32;69.46;99312.81;4496637;31;32382;-64
2022/10/01 10:26:04;;;;;;;17.08;12.15;;;;;;;20.40;69.55;99310.03;4480875;31;34624;-62
2022/10/01 10:28:39;;;;;;;12.25;9.82;;;;;;;19.41;72.19;99312.00;4490560;31;32595;-63
2022/10/01 10:31:20;;;;;;;14.63;12.13;;;;;;;19.32;72.92;99305.78;4492756;31;34229;-63
2022/10/01 10:33:57;;;;;;;13.25;11.45;;;;;;;19.95;70.98;99295.59;4487103;31;33992;-64
2022/10/01 10:36:28;;;;;;;13.30;10.27;;;;;;;19.83;71.59;99299.78;4488023;31;35329;-64
2022/10/01 10:38:57;;;;;;;16.52;10.05;;;;;;;19.67;71.05;99289.91;4498145;31;32478;-62
2022/10/01 10:41:25;;;;;;;14.77;12.48;;;;;;;20.00;70.72;99290.44;4494285;31;35162;-63
2022/10/01 10:44:05;;;;;;;13.70;8.30;;;;;;;20.24;70.81;99295.59;4496663;31;32784;-63
2022/10/01 10:46:35;;;;;;;10.45;5.78;;;;;;;20.46;69.42;99282.91;4489963;31;33111;-62
2022/10/01 10:49:30;;;;;;;13.13;7.15;;;;;;;20.63;68.27;99278.13;4492349;31;33817;-63
2022/10/01 10:52:00;;;;;;;9.10;6.82;;;;;;;20.37;68.80;99277.78;4490210;31;33261;-63
2022/10/01 10:54:32;;;;;;;11.40;7.32;;;;;;;20.51;69.67;99276.06;4498667;31;33594;-63
2022/10/01 10:57:20;;;;;;;8.18;6.62;;;;;;;20.47;70.23;99270.16;4489281;31;34267;-63
2022/10/01 11:00:14;;;;;;;10.38;7.72;;;;;;;20.53;68.23;99266.72;4494305;31;34734;-62
2022/10/01 11:03:00;;;;;;;10.37;7.83;;;;;;;19.74;72.41;99258.28;4491975;31;34970;-62
2022/10/01 11:05:31;;;;;;;10.15;8.07;;;;;;;20.15;69.24;99258.66;4475282;31;35274;-63
2022/10/01 11:08:04;;;;;;;8.35;5.22;;;;;;;19.79;70.39;99255.88;4493077;31;33321;-63
2022/10/01 11:10:56;;;;;;;10.20;6.90;;;;;;;19.78;70.80;99252.31;4496598;31;33630;-64
2022/10/01 11:13:26;;;;;;;8.98;6.43;;;;;;;19.87;69.76;99242.22;4495384;31;34230;-63
2022/10/01 11:16:13;;;;;;;7.50;4.35;;;;;;;20.56;66.93;99232.88;4489752;31;32644;-63
2022/10/01 11:18:47;;;;;;;8.93;6.18;;;;;;;20.48;68.45;99226.50;4494767;31;32766;-62
2022/10/01 11:21:14;;;;;;;6.90;5.40;;;;;;;20.35;68.53;99222.75;4498563;31;34637;-62
2022/10/01 11:24:08;;;;;;;8.18;5.75;;;;;;;20.30;68.97;99217.06;4499272;31;32230;-63
2022/10/01 11:26:57;;;;;;;8.52;5.55;;;;;;;20.43;67.33;99203.63;4482513;31;32911;-63
2022/10/01 11:30:00;;;;;;;8.00;4.55;;;;;;;20.02;69.48;99205.00;4493173;31;32065;-63
2022/10/01 11:32:38;;;;;;;6.37;3.72;;;;;;;19.95;68.76;99198.66;4485430;31;32507;-62
2022/10/01 11:35:31;;;;;;;6.97;5.30;;;;;;;19.96;69.42;99191.34;4495594;31;33991;-63
2022/10/01 11:38:03;;;;;;;8.25;4.97;;;;;;;19.68;71.14;99194.72;4490826;31;34206;-62
2022/10/01 11:40:39;;;;;;;6.60;4.35;;;;;;;20.40;68.95;99187.72;4498654;31;32157;-63
2022/10/01 11:43:29;;;;;;;14.50;5.32;;;;;;;20.43;69.03;99180.00;4496785;31;35628;-63
2022/10/01 11:46:07;;;;;;;7.57;4.87;;;;;;;20.43;68.38;99176.47;4486691;31;33533;-63
2022/10/01 11:48:47;;;;;;;4.65;3.37;;;;;;;20.87;66.87;99170.06;4491830;31;34559;-63